createdAt,value
2018-12-15T00:00:58.060Z,68.30
2018-12-15T00:03:26.770Z,68.50
2018-12-15T00:05:55.679Z,69.50
2018-12-15T00:08:24.203Z,71.50
2018-12-15T00:10:52.708Z,70.50
2018-12-15T00:13:21.847Z,70.50
2018-12-15T00:15:50.422Z,70.70
2018-12-15T00:18:19.172Z,71.10
2018-12-15T00:20:47.691Z,71.80
2018-12-15T00:23:16.147Z,71.90
2018-12-15T00:25:44.628Z,71.80
2018-12-15T00:28:13.160Z,72.30
2018-12-15T00:30:41.891Z,72.60
2018-12-15T00:33:10.365Z,72.60
2018-12-15T00:35:38.876Z,72.20
2018-12-15T00:38:07.383Z,73.10
2018-12-15T00:40:35.894Z,73.30
2018-12-15T00:43:05.549Z,73.50
2018-12-15T00:45:34.030Z,74.20
2018-12-15T00:48:03.493Z,74.00
2018-12-15T00:50:31.982Z,74.40
2018-12-15T00:53:00.614Z,74.20
2018-12-15T00:55:29.329Z,74.30
2018-12-15T00:57:57.837Z,74.20
2018-12-15T01:00:26.452Z,74.30
2018-12-15T01:02:54.867Z,74.10
2018-12-15T01:05:23.646Z,74.00
2018-12-15T01:07:52.375Z,73.80
2018-12-15T01:10:21.470Z,73.70
2018-12-15T01:12:50.027Z,73.50
2018-12-15T01:15:24.322Z,73.50
2018-12-15T01:17:53.855Z,73.50
2018-12-15T01:20:22.376Z,73.40
2018-12-15T01:22:50.888Z,73.30
2018-12-15T01:25:19.702Z,73.00
2018-12-15T01:27:48.178Z,73.00
2018-12-15T01:30:16.971Z,73.80
2018-12-15T01:32:45.495Z,73.10
2018-12-15T01:35:14.111Z,73.00
2018-12-15T01:37:44.545Z,73.90
2018-12-15T01:40:13.217Z,73.40
2018-12-15T01:42:42.033Z,74.10
2018-12-15T01:45:11.183Z,74.00
2018-12-15T01:47:39.708Z,73.80
2018-12-15T01:50:08.338Z,73.90
2018-12-15T01:52:36.850Z,73.90
2018-12-15T01:55:05.586Z,74.40
2018-12-15T01:57:34.078Z,74.40
2018-12-15T02:00:02.613Z,74.30
2018-12-15T02:02:31.298Z,74.70
2018-12-15T02:05:00.999Z,74.70
2018-12-15T02:07:29.706Z,75.00
2018-12-15T02:09:58.703Z,75.20
2018-12-15T02:12:27.859Z,75.40
2018-12-15T02:14:56.403Z,75.30
2018-12-15T02:17:26.262Z,75.60
2018-12-15T02:19:54.927Z,75.80
2018-12-15T02:22:23.522Z,75.80
2018-12-15T02:24:52.038Z,76.00
2018-12-15T02:27:20.615Z,76.00
2018-12-15T02:29:49.058Z,76.00
2018-12-15T02:32:18.036Z,76.00
2018-12-15T02:34:46.600Z,76.30
2018-12-15T02:37:15.682Z,76.30
2018-12-15T02:39:44.200Z,76.40
2018-12-15T02:42:13.728Z,76.50
2018-12-15T02:44:42.282Z,76.60
2018-12-15T02:47:11.129Z,76.70
2018-12-15T02:49:39.583Z,76.90
2018-12-15T02:52:08.140Z,76.80
2018-12-15T02:54:36.681Z,77.00
2018-12-15T02:57:05.572Z,76.90
2018-12-15T02:59:34.049Z,77.10
2018-12-15T03:02:04.049Z,76.80
2018-12-15T03:04:32.589Z,76.90
2018-12-15T03:07:01.064Z,76.80
2018-12-15T03:09:29.971Z,76.90
2018-12-15T03:11:58.568Z,77.20
2018-12-15T03:14:27.061Z,77.20
2018-12-15T03:17:06.167Z,77.50
2018-12-15T03:19:35.299Z,77.60
2018-12-15T03:22:03.759Z,77.60
2018-12-15T03:24:32.565Z,77.40
2018-12-15T03:27:01.806Z,77.50
2018-12-15T03:29:30.279Z,77.70
2018-12-15T03:31:58.929Z,77.80
2018-12-15T03:34:27.543Z,77.80
2018-12-15T03:36:56.193Z,77.80
2018-12-15T03:39:25.251Z,77.80
2018-12-15T03:41:53.862Z,77.70
2018-12-15T03:44:22.489Z,77.90
2018-12-15T03:46:51.898Z,78.00
2018-12-15T03:49:20.533Z,78.00
2018-12-15T03:51:49.023Z,78.10
2018-12-15T03:54:18.038Z,78.00
2018-12-15T03:56:46.700Z,77.90
2018-12-15T03:59:15.766Z,78.00
2018-12-15T04:01:44.314Z,78.30
2018-12-15T04:04:13.594Z,78.30
2018-12-15T04:06:42.177Z,78.30
2018-12-15T04:09:12.089Z,78.30
2018-12-15T04:11:40.605Z,78.40
2018-12-15T04:14:09.861Z,78.40
2018-12-15T04:16:38.389Z,78.40
2018-12-15T04:19:07.502Z,78.50
2018-12-15T04:21:36.359Z,78.30
2018-12-15T04:24:06.889Z,78.30
2018-12-15T04:26:35.407Z,78.10
2018-12-15T04:29:04.695Z,78.60
2018-12-15T04:31:34.704Z,77.80
2018-12-15T04:34:03.525Z,77.60
2018-12-15T04:36:32.149Z,77.50
2018-12-15T04:39:00.716Z,77.40
2018-12-15T04:41:29.135Z,77.40
2018-12-15T04:43:57.949Z,77.30
2018-12-15T04:46:26.993Z,77.20
2018-12-15T04:48:55.513Z,77.10
2018-12-15T04:51:23.983Z,77.10
2018-12-15T04:53:52.617Z,77.20
2018-12-15T04:56:21.094Z,77.10
2018-12-15T04:58:50.160Z,77.10
2018-12-15T05:01:18.739Z,77.20
2018-12-15T05:03:47.252Z,77.30
2018-12-15T05:06:16.969Z,77.20
2018-12-15T05:08:45.777Z,77.40
2018-12-15T05:11:14.377Z,77.40
2018-12-15T05:13:43.692Z,77.40
2018-12-15T05:16:12.197Z,77.50
2018-12-15T05:18:41.551Z,77.50
2018-12-15T05:21:10.093Z,77.50
2018-12-15T05:23:38.914Z,77.40
2018-12-15T05:26:08.057Z,78.30
2018-12-15T05:28:36.521Z,77.70
2018-12-15T05:31:05.044Z,77.80
2018-12-15T05:33:34.183Z,78.60
2018-12-15T05:36:02.800Z,77.80
2018-12-15T05:38:31.343Z,77.80
2018-12-15T05:41:00.586Z,77.80
2018-12-15T05:43:29.196Z,77.80
2018-12-15T05:45:57.741Z,77.80
2018-12-15T05:48:26.494Z,77.80
2018-12-15T05:50:55.899Z,77.50
2018-12-15T05:53:24.466Z,77.60
2018-12-15T05:55:52.960Z,77.50
2018-12-15T05:58:21.796Z,77.40
2018-12-15T06:00:50.839Z,77.20
2018-12-15T06:03:19.966Z,77.10
2018-12-15T06:05:48.478Z,77.00
2018-12-15T06:08:17.611Z,76.70
2018-12-15T06:10:46.111Z,76.60
2018-12-15T06:13:14.962Z,76.40
2018-12-15T06:15:43.609Z,76.30
2018-12-15T06:18:12.068Z,76.30
2018-12-15T06:20:40.642Z,75.80
2018-12-15T06:23:09.555Z,75.30
2018-12-15T06:25:39.188Z,75.40
2018-12-15T06:28:08.477Z,75.30
2018-12-15T06:30:37.210Z,75.30
2018-12-15T06:33:05.833Z,75.40
2018-12-15T06:35:34.749Z,75.70
2018-12-15T06:38:03.578Z,75.70
2018-12-15T06:40:32.094Z,76.00
2018-12-15T06:43:00.595Z,76.30
2018-12-15T06:45:29.137Z,76.30
2018-12-15T06:47:57.635Z,76.30
2018-12-15T06:50:26.209Z,76.40
2018-12-15T06:52:54.699Z,76.90
2018-12-15T06:55:23.221Z,76.90
2018-12-15T06:57:51.693Z,77.10
2018-12-15T07:00:20.202Z,77.10
2018-12-15T07:02:48.883Z,77.10
2018-12-15T07:05:19.366Z,77.10
2018-12-15T07:07:47.911Z,78.10
2018-12-15T07:10:16.427Z,77.50
2018-12-15T07:12:45.455Z,77.60
2018-12-15T07:15:14.105Z,77.60
2018-12-15T07:17:42.631Z,77.70
2018-12-15T07:20:11.145Z,77.60
2018-12-15T07:22:39.749Z,77.60
2018-12-15T07:25:09.495Z,77.50
2018-12-15T07:27:38.712Z,77.60
2018-12-15T07:30:07.580Z,77.50
2018-12-15T07:32:36.348Z,77.50
2018-12-15T07:35:05.718Z,77.30
2018-12-15T07:37:35.198Z,77.20
2018-12-15T07:40:04.241Z,77.60
2018-12-15T07:42:32.861Z,78.20
2018-12-15T07:45:01.386Z,77.50
2018-12-15T07:47:29.846Z,77.10
2018-12-15T07:49:59.067Z,76.60
2018-12-15T07:52:28.239Z,76.50
2018-12-15T07:54:57.452Z,76.00
2018-12-15T07:57:26.144Z,75.90
2018-12-15T07:59:54.733Z,75.70
2018-12-15T08:02:23.410Z,75.50
2018-12-15T08:04:52.103Z,75.50
2018-12-15T08:07:20.763Z,75.50
2018-12-15T08:09:50.225Z,75.20
2018-12-15T08:12:24.208Z,75.40
2018-12-15T08:14:52.958Z,75.10
2018-12-15T08:17:21.520Z,75.00
2018-12-15T08:19:50.772Z,75.00
2018-12-15T08:22:25.946Z,74.50
2018-12-15T08:24:51.618Z,74.10
2018-12-15T08:27:20.337Z,74.50
2018-12-15T08:29:49.041Z,74.80
2018-12-15T08:32:18.159Z,74.80
2018-12-15T08:34:47.230Z,74.60
2018-12-15T08:37:15.716Z,75.10
2018-12-15T08:39:44.368Z,75.30
2018-12-15T08:42:12.902Z,75.40
2018-12-15T08:44:41.487Z,75.60
2018-12-15T08:47:09.990Z,75.80
2018-12-15T08:49:38.606Z,75.10
2018-12-15T08:52:07.486Z,75.20
2018-12-15T08:54:36.119Z,75.00
2018-12-15T08:57:04.678Z,74.90
2018-12-15T08:59:34.214Z,74.80
2018-12-15T09:02:02.969Z,74.80
2018-12-15T09:04:31.779Z,74.70
2018-12-15T09:07:00.259Z,75.30
2018-12-15T09:09:28.928Z,76.30
2018-12-15T09:11:57.384Z,76.80
2018-12-15T09:14:27.106Z,77.00
2018-12-15T09:16:56.307Z,76.80
2018-12-15T09:19:24.948Z,76.80
2018-12-15T09:21:53.436Z,76.50
2018-12-15T09:24:23.001Z,76.10
2018-12-15T09:26:52.158Z,75.70
2018-12-15T09:29:21.625Z,75.40
2018-12-15T09:31:50.578Z,75.30
2018-12-15T09:34:20.069Z,75.10
2018-12-15T09:36:48.569Z,75.00
2018-12-15T09:39:17.086Z,75.10
2018-12-15T09:41:46.018Z,75.10
2018-12-15T09:44:14.504Z,75.10
2018-12-15T09:46:43.035Z,74.70
2018-12-15T09:49:17.554Z,74.60
2018-12-15T09:51:42.069Z,74.60
2018-12-15T09:54:10.668Z,74.60
2018-12-15T09:56:39.326Z,74.70
2018-12-15T09:59:07.894Z,74.60
2018-12-15T10:01:36.580Z,73.70
2018-12-15T10:04:05.191Z,72.80
2018-12-15T10:06:34.076Z,72.10
2018-12-15T10:09:03.123Z,71.90
2018-12-15T10:11:31.678Z,72.10
2018-12-15T10:14:00.748Z,71.50
2018-12-15T10:16:29.769Z,70.20
2018-12-15T10:18:58.307Z,70.20
2018-12-15T10:21:26.854Z,70.00
2018-12-15T10:23:55.365Z,70.00
2018-12-15T10:26:23.866Z,69.30
2018-12-15T10:28:52.416Z,68.70
2018-12-15T10:31:27.150Z,67.30
2018-12-15T10:33:56.340Z,66.50
2018-12-15T10:36:24.940Z,66.30
2018-12-15T10:38:53.482Z,65.90
2018-12-15T10:41:22.176Z,65.70
2018-12-15T10:43:50.692Z,65.00
2018-12-15T10:46:19.276Z,64.10
2018-12-15T10:48:47.792Z,63.70
2018-12-15T10:51:17.260Z,63.50
2018-12-15T10:53:45.944Z,63.10
2018-12-15T10:56:14.478Z,62.60
2018-12-15T10:58:43.063Z,62.30
2018-12-15T11:01:16.883Z,62.40
2018-12-15T11:03:46.028Z,62.00
2018-12-15T11:06:15.119Z,62.00
2018-12-15T11:08:44.416Z,62.10
2018-12-15T11:11:13.128Z,62.80
2018-12-15T11:13:41.649Z,61.10
2018-12-15T11:16:10.470Z,60.70
2018-12-15T11:18:39.120Z,60.00
2018-12-15T11:21:07.601Z,59.90
2018-12-15T11:23:36.129Z,59.40
2018-12-15T11:26:04.759Z,58.90
2018-12-15T11:31:07.065Z,58.60
2018-12-15T11:33:35.851Z,57.80
2018-12-15T11:36:04.689Z,57.90
2018-12-15T11:38:33.716Z,58.20
2018-12-15T11:41:02.339Z,58.60
2018-12-15T11:43:30.859Z,59.00
2018-12-15T11:45:59.430Z,59.20
2018-12-15T11:48:27.948Z,59.80
2018-12-15T11:50:56.574Z,60.20
2018-12-15T11:53:25.486Z,60.30
2018-12-15T11:55:54.406Z,60.00
2018-12-15T11:58:23.339Z,60.00
2018-12-15T12:00:52.236Z,60.00
2018-12-15T12:03:20.824Z,60.30
2018-12-15T12:05:50.111Z,60.70
2018-12-15T12:08:19.331Z,60.70
2018-12-15T12:10:47.834Z,60.40
2018-12-15T12:13:16.363Z,60.20
2018-12-15T12:15:45.589Z,60.10
2018-12-15T12:18:15.129Z,60.00
2018-12-15T12:20:44.284Z,60.00
2018-12-15T12:23:12.874Z,60.20
2018-12-15T12:25:41.481Z,60.50
2018-12-15T12:28:11.419Z,60.70
2018-12-15T12:30:40.525Z,61.70
2018-12-15T12:33:09.030Z,61.00
2018-12-15T12:35:37.499Z,60.90
2018-12-15T12:38:06.367Z,61.30
2018-12-15T12:40:34.816Z,62.20
2018-12-15T12:43:03.400Z,62.50
2018-12-15T12:45:32.242Z,62.40
2018-12-15T12:48:00.744Z,61.80
2018-12-15T12:50:29.241Z,61.50
2018-12-15T12:52:57.718Z,61.10
2018-12-15T12:55:26.773Z,61.00
2018-12-15T12:57:55.301Z,60.00
2018-12-15T13:00:23.900Z,58.90
2018-12-15T13:02:52.371Z,58.30
2018-12-15T13:05:20.886Z,58.30
2018-12-15T13:07:49.498Z,58.50
2018-12-15T13:10:18.154Z,58.90
2018-12-15T13:12:46.635Z,59.10
2018-12-15T13:15:15.176Z,59.20
2018-12-15T13:17:43.732Z,59.40
2018-12-15T13:20:12.662Z,59.80
2018-12-15T13:22:41.280Z,59.70
2018-12-15T13:25:09.867Z,59.50
2018-12-15T13:27:38.375Z,59.30
2018-12-15T13:30:08.190Z,59.50
2018-12-15T13:32:36.948Z,59.80
2018-12-15T13:35:06.189Z,60.20
2018-12-15T13:37:34.742Z,60.70
2018-12-15T13:40:03.773Z,61.20
2018-12-15T13:42:32.512Z,61.60
2018-12-15T13:45:01.313Z,61.80
2018-12-15T13:47:30.647Z,62.60
2018-12-15T13:49:59.369Z,61.90
2018-12-15T13:52:27.941Z,61.90
2018-12-15T13:54:56.533Z,62.00
2018-12-15T13:57:25.309Z,61.90
2018-12-15T13:59:53.912Z,62.70
2018-12-15T14:02:22.768Z,62.50
2018-12-15T14:04:52.413Z,63.10
2018-12-15T14:07:21.472Z,63.00
2018-12-15T14:09:50.111Z,63.40
2018-12-15T14:12:18.644Z,62.40
2018-12-15T14:14:47.179Z,63.20
2018-12-15T14:17:15.776Z,62.60
2018-12-15T14:19:44.274Z,63.10
2018-12-15T14:22:13.386Z,63.50
2018-12-15T14:24:42.073Z,64.20
2018-12-15T14:27:10.665Z,64.80
2018-12-15T14:29:39.224Z,65.20
2018-12-15T14:32:07.720Z,65.30
2018-12-15T14:34:36.257Z,65.10
2018-12-15T14:37:04.956Z,65.20
2018-12-15T14:39:33.456Z,65.80
2018-12-15T14:42:02.481Z,65.70
2018-12-15T14:44:30.977Z,65.70
2018-12-15T14:46:59.671Z,65.70
2018-12-15T14:49:28.199Z,65.90
2018-12-15T14:51:56.716Z,66.30
2018-12-15T14:54:25.209Z,66.50
2018-12-15T14:56:53.782Z,66.80
2018-12-15T14:59:22.444Z,67.70
2018-12-15T15:01:51.394Z,65.70
2018-12-15T15:04:19.842Z,64.40
2018-12-15T15:06:48.380Z,63.40
2018-12-15T15:09:16.968Z,62.50
2018-12-15T15:11:45.602Z,62.00
2018-12-15T15:14:14.406Z,61.80
2018-12-15T15:16:42.902Z,62.40
2018-12-15T15:19:11.391Z,62.70
2018-12-15T15:21:39.939Z,62.10
2018-12-15T15:24:08.715Z,61.50
2018-12-15T15:26:38.337Z,61.10
2018-12-15T15:29:06.852Z,61.10
2018-12-15T15:31:35.341Z,61.40
2018-12-15T15:34:03.988Z,61.10
2018-12-15T15:36:32.556Z,61.40
2018-12-15T15:39:01.129Z,62.10
2018-12-15T15:41:29.624Z,61.90
2018-12-15T15:43:58.759Z,61.80
2018-12-15T15:46:27.236Z,61.50
2018-12-15T15:48:55.911Z,61.50
2018-12-15T15:51:25.435Z,61.70
2018-12-15T15:53:53.924Z,61.50
2018-12-15T15:56:22.421Z,61.40
2018-12-15T15:58:50.903Z,62.10
2018-12-15T16:01:19.616Z,61.50
2018-12-15T16:03:48.247Z,61.80
2018-12-15T16:06:16.853Z,61.90
2018-12-15T16:08:45.332Z,61.70
2018-12-15T16:11:13.803Z,61.50
2018-12-15T16:13:43.344Z,61.60
2018-12-15T16:16:24.507Z,61.50
2018-12-15T16:18:53.899Z,61.90
2018-12-15T16:21:22.417Z,61.50
2018-12-15T16:23:51.070Z,61.40
2018-12-15T16:26:19.756Z,61.60
2018-12-15T16:28:48.341Z,61.40
2018-12-15T16:31:16.883Z,61.70
2018-12-15T16:33:45.800Z,61.90
2018-12-15T16:36:14.436Z,62.20
2018-12-15T16:38:42.943Z,62.30
2018-12-15T16:41:11.506Z,62.50
2018-12-15T16:43:40.671Z,62.60
2018-12-15T16:46:09.542Z,62.50
2018-12-15T16:48:38.528Z,62.60
2018-12-15T16:51:07.034Z,62.80
2018-12-15T16:53:35.582Z,63.00
2018-12-15T16:56:04.149Z,63.20
2018-12-15T16:58:33.166Z,63.40
2018-12-15T17:01:01.857Z,63.70
2018-12-15T17:03:30.690Z,63.80
2018-12-15T17:05:59.360Z,63.80
2018-12-15T17:08:28.026Z,64.10
2018-12-15T17:10:56.618Z,64.30
2018-12-15T17:13:25.770Z,64.20
2018-12-15T17:15:54.452Z,64.40
2018-12-15T17:18:23.991Z,64.60
2018-12-15T17:20:56.696Z,64.70
2018-12-15T17:23:23.370Z,64.70
2018-12-15T17:25:51.996Z,65.70
2018-12-15T17:28:20.493Z,64.90
2018-12-15T17:30:49.109Z,65.10
2018-12-15T17:33:17.575Z,65.10
2018-12-15T17:35:46.024Z,65.10
2018-12-15T17:38:15.718Z,65.20
2018-12-15T17:40:44.241Z,65.30
2018-12-15T17:43:12.735Z,65.30
2018-12-15T17:45:42.678Z,65.50
2018-12-15T17:48:11.697Z,65.70
2018-12-15T17:50:40.275Z,65.60
2018-12-15T17:53:08.779Z,65.60
2018-12-15T17:55:37.316Z,65.80
2018-12-15T17:58:05.840Z,65.90
2018-12-15T18:00:34.397Z,66.10
2018-12-15T18:03:03.205Z,66.20
2018-12-15T18:05:31.683Z,66.30
2018-12-15T18:08:00.213Z,66.40
2018-12-15T18:10:28.856Z,66.80
2018-12-15T18:12:57.330Z,67.60
2018-12-15T18:15:25.957Z,66.90
2018-12-15T18:17:55.370Z,66.80
2018-12-15T18:20:23.891Z,67.00
2018-12-15T18:22:52.391Z,67.20
2018-12-15T18:25:20.935Z,67.30
2018-12-15T18:27:49.596Z,67.50
2018-12-15T18:30:18.105Z,67.40
2018-12-15T18:32:46.649Z,67.40
2018-12-15T18:35:15.176Z,67.60
2018-12-15T18:37:43.643Z,67.60
2018-12-15T18:40:12.242Z,67.60
2018-12-15T18:42:40.713Z,68.30
2018-12-15T18:45:09.496Z,67.60
2018-12-15T18:47:38.352Z,67.70
2018-12-15T18:50:09.148Z,67.80
2018-12-15T18:52:37.772Z,67.70
2018-12-15T18:55:06.421Z,67.70
2018-12-15T18:57:34.976Z,67.80
2018-12-15T19:00:03.979Z,68.00
2018-12-15T19:02:32.558Z,68.10
2018-12-15T19:05:01.988Z,68.50
2018-12-15T19:07:30.453Z,68.10
2018-12-15T19:09:59.878Z,69.30
2018-12-15T19:12:28.393Z,69.40
2018-12-15T19:14:58.267Z,69.70
2018-12-15T19:17:27.294Z,70.00
2018-12-15T19:19:56.634Z,70.50
2018-12-15T19:22:25.143Z,70.30
2018-12-15T19:24:53.700Z,70.10
2018-12-15T19:27:22.200Z,70.40
2018-12-15T19:29:50.869Z,70.40
2018-12-15T19:32:19.327Z,70.40
2018-12-15T19:34:52.404Z,70.50
2018-12-15T19:37:19.237Z,70.30
2018-12-15T19:39:47.742Z,70.20
2018-12-15T19:42:16.599Z,70.00
2018-12-15T19:44:45.169Z,70.00
2018-12-15T19:47:13.968Z,69.80
2018-12-15T19:49:43.561Z,69.70
2018-12-15T19:52:13.292Z,69.60
2018-12-15T19:54:42.265Z,69.70
2018-12-15T19:57:11.053Z,69.70
2018-12-15T19:59:40.048Z,69.70
2018-12-15T20:02:09.261Z,69.80
2018-12-15T20:04:38.034Z,69.80
2018-12-15T20:07:08.460Z,70.60
2018-12-15T20:09:37.657Z,69.80
2018-12-15T20:12:06.654Z,69.90
2018-12-15T20:14:35.540Z,69.80
2018-12-15T20:17:05.148Z,69.80
2018-12-15T20:19:34.141Z,70.10
2018-12-15T20:22:03.034Z,70.20
2018-12-15T20:24:34.297Z,70.30
2018-12-15T20:27:02.779Z,70.50
2018-12-15T20:29:31.863Z,70.50
2018-12-15T20:32:00.905Z,70.50
2018-12-15T20:34:29.371Z,70.50
2018-12-15T20:36:58.044Z,70.50
2018-12-15T20:39:26.803Z,71.00
2018-12-15T20:41:55.304Z,71.10
2018-12-15T20:44:23.994Z,71.10
2018-12-15T20:46:52.990Z,71.10
2018-12-15T20:49:22.108Z,71.20
2018-12-15T20:51:50.569Z,71.30
2018-12-15T20:54:19.964Z,71.30
2018-12-15T20:56:48.637Z,71.20
2018-12-15T20:59:17.154Z,71.20
2018-12-15T21:01:45.693Z,71.00
2018-12-15T21:04:14.175Z,71.10
2018-12-15T21:06:42.704Z,71.20
2018-12-15T21:09:11.752Z,71.10
2018-12-15T21:11:40.998Z,71.00
2018-12-15T21:14:09.521Z,71.10
2018-12-15T21:16:38.748Z,70.80
2018-12-15T21:19:07.294Z,70.80
2018-12-15T21:21:35.949Z,70.70
2018-12-15T21:24:04.696Z,70.80
2018-12-15T21:26:33.216Z,70.60
2018-12-15T21:29:01.726Z,70.60
2018-12-15T21:31:30.443Z,70.50
2018-12-15T21:33:59.079Z,70.60
2018-12-15T21:36:27.530Z,70.50
2018-12-15T21:38:56.065Z,71.30
2018-12-15T21:41:24.577Z,70.60
2018-12-15T21:43:53.089Z,70.60
2018-12-15T21:46:23.474Z,70.70
2018-12-15T21:48:52.481Z,70.70
2018-12-15T21:51:21.670Z,70.70
2018-12-15T21:53:51.270Z,70.70
2018-12-15T21:56:20.076Z,70.70
2018-12-15T21:58:48.658Z,70.80
2018-12-15T22:01:17.195Z,70.70
2018-12-15T22:03:45.749Z,71.00
2018-12-15T22:06:14.226Z,72.00
2018-12-15T22:08:42.737Z,71.40
2018-12-15T22:11:12.324Z,71.40
2018-12-15T22:13:40.826Z,71.40
2018-12-15T22:16:09.651Z,71.30
2018-12-15T22:18:38.661Z,71.40
2018-12-15T22:21:07.127Z,71.40
2018-12-15T22:23:35.919Z,72.10
2018-12-15T22:26:06.301Z,72.50
2018-12-15T22:28:34.975Z,73.70
2018-12-15T22:31:04.331Z,73.80
2018-12-15T22:33:33.266Z,74.40
2018-12-15T22:36:02.601Z,74.70
2018-12-15T22:38:31.285Z,74.60
2018-12-15T22:40:59.856Z,74.40
2018-12-15T22:43:28.340Z,74.60
2018-12-15T22:45:57.050Z,76.30
2018-12-15T22:48:25.748Z,77.20
2018-12-15T22:50:54.480Z,78.00
2018-12-15T22:53:23.401Z,78.90
2018-12-15T22:55:51.873Z,80.30
2018-12-15T22:58:20.615Z,79.30
2018-12-15T23:00:55.193Z,79.20
2018-12-15T23:03:24.499Z,78.80
2018-12-15T23:05:53.031Z,79.50
2018-12-15T23:08:22.492Z,79.20
2018-12-15T23:10:51.092Z,78.90
2018-12-15T23:13:20.317Z,78.80
2018-12-15T23:15:49.087Z,79.50
2018-12-15T23:18:18.327Z,79.80
2018-12-15T23:20:46.810Z,79.70
2018-12-15T23:23:15.500Z,79.70
2018-12-15T23:25:44.015Z,80.10
2018-12-15T23:28:12.717Z,79.30
2018-12-15T23:30:41.396Z,79.30
2018-12-15T23:33:10.519Z,79.50
2018-12-15T23:35:39.066Z,79.20
2018-12-15T23:38:08.377Z,79.30
2018-12-15T23:40:37.027Z,79.20
2018-12-15T23:43:05.560Z,79.20
2018-12-15T23:45:34.226Z,79.70
2018-12-15T23:48:02.967Z,79.40
2018-12-15T23:50:31.522Z,79.80
2018-12-15T23:53:00.462Z,80.30
2018-12-15T23:55:28.943Z,79.40
2018-12-15T23:57:58.061Z,79.60
